createdAt,value
2022-09-03T00:00:14.719Z,99469.37
2022-09-03T00:02:50.844Z,99467.60
2022-09-03T00:05:27.508Z,99465.88
2022-09-03T00:08:04.803Z,99473.69
2022-09-03T00:10:43.862Z,99476.25
2022-09-03T00:13:20.368Z,99483.16
2022-09-03T00:15:54.857Z,99484.86
2022-09-03T00:18:30.985Z,99484.86
2022-09-03T00:21:08.771Z,99488.25
2022-09-03T00:23:48.251Z,99490.70
2022-09-03T00:26:26.628Z,99494.08
2022-09-03T00:29:03.870Z,99497.44
2022-09-03T00:31:40.482Z,99503.48
2022-09-03T00:34:17.674Z,99502.39
2022-09-03T00:36:50.916Z,99503.94
2022-09-03T00:39:26.389Z,99510.66
2022-09-03T00:42:08.156Z,99515.70
2022-09-03T00:44:57.137Z,99513.81
2022-09-03T00:47:33.867Z,99505.95
2022-09-03T00:50:13.115Z,99518.77
2022-09-03T00:52:52.567Z,99521.27
2022-09-03T00:55:31.151Z,99515.15
2022-09-03T00:58:17.388Z,99525.39
2022-09-03T01:00:52.964Z,99520.99
2022-09-03T01:03:30.465Z,99526.88
2022-09-03T01:06:17.012Z,99534.62
2022-09-03T01:09:16.654Z,99535.36
2022-09-03T01:11:56.580Z,99538.77
2022-09-03T01:14:35.954Z,99533.50
2022-09-03T01:17:13.783Z,99534.33
2022-09-03T01:20:03.519Z,99536.05
2022-09-03T01:23:04.538Z,99529.11
2022-09-03T01:25:48.847Z,99533.42
2022-09-03T01:28:37.146Z,99536.83
2022-09-03T01:31:16.455Z,99502.47
2022-09-03T01:33:55.044Z,99548.97
2022-09-03T01:36:32.279Z,99541.90
2022-09-03T01:39:08.230Z,99548.02
2022-09-03T01:42:05.745Z,99555.02
2022-09-03T01:44:44.758Z,99553.28
2022-09-03T01:47:22.538Z,99561.92
2022-09-03T01:49:59.666Z,99560.11
2022-09-03T01:52:39.357Z,99567.88
2022-09-03T01:55:18.910Z,99578.23
2022-09-03T01:57:57.364Z,99571.30
2022-09-03T02:00:32.596Z,99577.30
2022-09-03T02:03:08.523Z,99575.53
2022-09-03T02:05:43.088Z,99577.25
2022-09-03T02:08:16.105Z,99578.94
2022-09-03T02:10:52.082Z,99579.84
2022-09-03T02:16:14.553Z,99593.13
2022-09-03T02:18:51.019Z,99589.30
2022-09-03T02:21:26.094Z,99599.66
2022-09-03T02:23:59.451Z,99590.16
2022-09-03T02:26:32.562Z,99598.75
2022-09-03T02:29:05.920Z,99601.30
2022-09-03T02:31:38.991Z,99603.89
2022-09-03T02:34:12.216Z,99605.70
2022-09-03T02:36:47.065Z,99610.80
2022-09-03T02:39:20.115Z,99609.94
2022-09-03T02:41:57.397Z,99620.30
2022-09-03T02:44:32.973Z,99609.94
2022-09-03T02:47:08.604Z,99609.06
2022-09-03T02:49:41.566Z,99612.48
2022-09-03T02:52:14.496Z,99613.30
2022-09-03T02:54:47.790Z,99615.84
2022-09-03T02:57:27.421Z,99620.20
2022-09-03T02:59:56.601Z,99623.66
2022-09-03T03:02:29.807Z,99623.70
2022-09-03T03:05:03.155Z,99625.48
2022-09-03T03:07:39.388Z,99627.24
2022-09-03T03:10:13.608Z,99629.05
2022-09-03T03:12:46.864Z,99628.23
2022-09-03T03:15:21.071Z,99623.05
2022-09-03T03:17:54.265Z,99622.28
2022-09-03T03:20:27.769Z,99629.19
2022-09-03T03:23:02.383Z,99630.09
2022-09-03T03:25:35.644Z,99634.55
2022-09-03T03:28:10.292Z,99642.41
2022-09-03T03:30:45.764Z,99638.95
2022-09-03T03:33:19.101Z,99646.77
2022-09-03T03:35:52.292Z,99651.17
2022-09-03T03:38:25.725Z,99652.11
2022-09-03T03:41:01.587Z,99653.97
2022-09-03T03:43:36.391Z,99659.23
2022-09-03T03:46:10.903Z,99655.91
2022-09-03T03:48:44.354Z,99657.69
2022-09-03T03:51:17.785Z,99655.99
2022-09-03T03:53:52.695Z,99656.03
2022-09-03T03:56:29.017Z,99592.67
2022-09-03T03:59:03.074Z,99651.77
2022-09-03T04:01:36.394Z,99657.89
2022-09-03T04:04:09.733Z,99658.88
2022-09-03T04:06:43.264Z,99654.69
2022-09-03T04:09:16.567Z,99655.59
2022-09-03T04:11:50.712Z,99658.27
2022-09-03T04:14:23.876Z,99669.62
2022-09-03T04:16:57.537Z,99671.48
2022-09-03T04:19:30.727Z,99671.64
2022-09-03T04:22:04.395Z,99670.00
2022-09-03T04:24:39.663Z,99667.53
2022-09-03T04:27:15.345Z,99671.02
2022-09-03T04:29:48.493Z,99676.38
2022-09-03T04:32:39.414Z,99666.98
2022-09-03T04:35:12.967Z,99677.56
2022-09-03T04:37:46.273Z,99673.24
2022-09-03T04:40:19.887Z,99677.01
2022-09-03T04:42:54.686Z,99673.75
2022-09-03T04:45:29.028Z,99668.75
2022-09-03T04:48:03.774Z,99672.44
2022-09-03T04:50:37.039Z,99677.91
2022-09-03T04:53:10.509Z,99674.63
2022-09-03T04:55:43.701Z,99679.25
2022-09-03T04:58:16.973Z,99676.88
2022-09-03T05:00:51.886Z,99677.97
2022-09-03T05:03:25.251Z,99681.64
2022-09-03T05:05:59.715Z,99672.27
2022-09-03T05:08:34.988Z,99672.38
2022-09-03T05:11:09.187Z,99686.36
2022-09-03T05:13:42.394Z,99678.68
2022-09-03T05:16:15.591Z,99685.78
2022-09-03T05:18:49.978Z,99681.63
2022-09-03T05:21:24.705Z,99685.26
2022-09-03T05:23:57.955Z,99681.97
2022-09-03T05:26:36.203Z,99689.09
2022-09-03T05:29:10.943Z,99696.13
2022-09-03T05:31:44.237Z,99691.97
2022-09-03T05:34:19.796Z,99687.73
2022-09-03T05:36:56.274Z,99699.16
2022-09-03T05:39:29.822Z,99705.39
2022-09-03T05:42:03.045Z,99700.41
2022-09-03T05:44:39.395Z,99697.16
2022-09-03T05:47:13.134Z,99701.69
2022-09-03T05:49:46.674Z,99707.05
2022-09-03T05:52:22.144Z,99707.08
2022-09-03T05:54:55.498Z,99708.84
2022-09-03T06:00:19.083Z,99708.19
2022-09-03T06:02:54.394Z,99710.05
2022-09-03T06:05:31.612Z,99717.13
2022-09-03T06:08:06.758Z,99716.47
2022-09-03T06:10:41.247Z,99715.72
2022-09-03T06:13:15.078Z,99712.42
2022-09-03T06:15:48.561Z,99708.25
2022-09-03T06:18:26.838Z,99713.46
2022-09-03T06:21:05.760Z,99723.21
2022-09-03T06:23:41.047Z,99722.56
2022-09-03T06:26:16.499Z,99730.57
2022-09-03T06:28:50.332Z,99727.55
2022-09-03T06:31:24.271Z,99726.10
2022-09-03T06:34:03.371Z,99720.89
2022-09-03T06:36:33.935Z,99703.06
2022-09-03T06:39:07.273Z,99701.84
2022-09-03T06:41:40.478Z,99705.44
2022-09-03T06:44:15.419Z,99704.03
2022-09-03T06:46:48.867Z,99702.89
2022-09-03T06:49:22.427Z,99703.43
2022-09-03T06:51:55.713Z,99702.20
2022-09-03T06:54:29.114Z,99698.98
2022-09-03T06:57:03.789Z,99716.38
2022-09-03T06:59:36.997Z,99704.63
2022-09-03T07:02:10.586Z,99696.03
2022-09-03T07:04:44.269Z,99707.47
2022-09-03T07:07:17.522Z,99708.74
2022-09-03T07:09:50.855Z,99715.62
2022-09-03T07:12:24.037Z,99721.45
2022-09-03T07:14:57.152Z,99716.39
2022-09-03T07:17:30.342Z,99720.95
2022-09-03T07:20:03.692Z,99710.27
2022-09-03T07:22:36.973Z,99698.28
2022-09-03T07:25:11.658Z,99702.48
2022-09-03T07:27:45.019Z,99693.52
2022-09-03T07:30:19.804Z,99709.02
2022-09-03T07:32:54.250Z,99712.23
2022-09-03T07:35:27.787Z,99718.76
2022-09-03T07:38:01.236Z,99706.75
2022-09-03T07:40:34.461Z,99710.49
2022-09-03T07:43:07.948Z,99702.52
2022-09-03T07:45:41.412Z,99709.06
2022-09-03T07:48:16.834Z,99709.20
2022-09-03T07:50:50.041Z,99725.38
2022-09-03T07:53:23.285Z,99745.81
2022-09-03T07:55:57.194Z,99722.25
2022-09-03T07:58:33.052Z,99711.57
2022-09-03T08:01:11.289Z,99720.74
2022-09-03T08:03:47.797Z,99703.41
2022-09-03T08:06:23.002Z,99723.28
2022-09-03T08:09:04.662Z,99723.80
2022-09-03T08:11:37.197Z,99714.05
2022-09-03T08:14:12.775Z,99705.14
2022-09-03T08:16:48.390Z,99706.05
2022-09-03T08:19:25.046Z,99710.47
2022-09-03T08:21:58.969Z,99716.63
2022-09-03T08:24:34.491Z,99703.34
2022-09-03T08:27:10.859Z,99721.25
2022-09-03T08:29:45.990Z,99696.92
2022-09-03T08:32:20.269Z,99711.63
2022-09-03T08:34:55.732Z,99732.70
2022-09-03T08:37:30.023Z,99695.64
2022-09-03T08:40:05.313Z,99700.84
2022-09-03T08:42:49.018Z,99704.09
2022-09-03T08:45:24.623Z,99675.65
2022-09-03T08:48:02.197Z,99706.17
2022-09-03T08:50:38.717Z,99711.33
2022-09-03T08:53:16.179Z,99703.37
2022-09-03T08:55:54.167Z,99710.09
2022-09-03T08:58:29.439Z,99714.62
2022-09-03T09:01:05.639Z,99708.73
2022-09-03T09:03:48.142Z,99713.39
2022-09-03T09:06:25.887Z,99690.21
2022-09-03T09:09:07.320Z,99692.91
2022-09-03T09:11:49.785Z,99679.59
2022-09-03T09:14:26.880Z,99682.49
2022-09-03T09:17:04.368Z,99672.45
2022-09-03T09:19:40.840Z,99702.05
2022-09-03T09:22:17.796Z,99698.56
2022-09-03T09:24:53.479Z,99703.87
2022-09-03T09:27:27.415Z,99707.67
2022-09-03T09:30:03.497Z,99705.45
2022-09-03T09:32:38.562Z,99715.90
2022-09-03T09:35:12.779Z,99710.95
2022-09-03T09:37:54.499Z,99713.38
2022-09-03T09:40:33.339Z,99717.30
2022-09-03T09:43:08.912Z,99715.60
2022-09-03T09:45:44.112Z,99707.71
2022-09-03T09:48:21.943Z,99708.91
2022-09-03T09:50:55.136Z,99700.34
2022-09-03T09:53:30.428Z,99714.48
2022-09-03T09:56:04.617Z,99709.20
2022-09-03T09:58:38.620Z,99707.38
2022-09-03T10:01:16.800Z,99701.45
2022-09-03T10:03:55.578Z,99711.27
2022-09-03T10:06:55.917Z,99707.80
2022-09-03T10:09:32.326Z,99704.33
2022-09-03T10:14:57.234Z,99707.58
2022-09-03T10:17:36.913Z,99683.40
2022-09-03T10:20:34.019Z,99681.20
2022-09-03T10:23:14.918Z,99678.66
2022-09-03T10:26:00.289Z,99682.28
2022-09-03T10:28:35.395Z,99678.06
2022-09-03T10:31:31.107Z,99680.55
2022-09-03T10:34:08.432Z,99662.20
2022-09-03T10:36:45.901Z,99678.91
2022-09-03T10:39:23.031Z,99683.45
2022-09-03T10:42:07.043Z,99685.95
2022-09-03T10:44:51.333Z,99673.19
2022-09-03T10:47:32.372Z,99685.77
2022-09-03T10:50:12.835Z,99683.47
2022-09-03T10:52:55.507Z,99674.80
2022-09-03T10:55:32.641Z,99680.52
2022-09-03T10:58:11.772Z,99661.09
2022-09-03T11:00:49.757Z,99663.53
2022-09-03T11:03:48.453Z,99678.92
2022-09-03T11:06:25.498Z,99672.89
2022-09-03T11:09:06.629Z,99685.77
2022-09-03T11:11:41.658Z,99659.12
2022-09-03T11:14:19.335Z,99685.44
2022-09-03T11:16:55.575Z,99681.31
2022-09-03T11:19:32.520Z,99672.83
2022-09-03T11:22:07.990Z,99683.41
2022-09-03T11:24:44.800Z,99694.71
2022-09-03T11:27:26.415Z,99688.48
2022-09-03T11:30:03.095Z,99703.80
2022-09-03T11:32:46.669Z,99691.75
2022-09-03T11:35:28.351Z,99691.02
2022-09-03T11:38:04.052Z,99692.00
2022-09-03T11:40:40.141Z,99686.86
2022-09-03T11:43:17.902Z,99687.82
2022-09-03T11:45:50.642Z,99692.18
2022-09-03T11:48:38.098Z,99679.55
2022-09-03T11:51:25.970Z,99689.02
2022-09-03T11:54:00.726Z,99687.58
2022-09-03T11:56:36.888Z,99665.67
2022-09-03T11:59:20.976Z,99667.72
2022-09-03T12:01:57.514Z,99671.66
2022-09-03T12:04:34.304Z,99671.59
2022-09-03T12:07:23.702Z,99681.98
2022-09-03T12:10:16.002Z,99676.09
2022-09-03T12:13:24.230Z,99664.17
2022-09-03T12:19:14.935Z,99636.04
2022-09-03T12:21:50.916Z,99615.81
2022-09-03T12:24:24.359Z,99619.56
2022-09-03T12:26:59.018Z,99636.56
2022-09-03T12:29:33.678Z,99615.66
2022-09-03T12:32:12.671Z,99613.56
2022-09-03T12:34:46.119Z,99624.45
2022-09-03T12:40:08.223Z,99632.84
2022-09-03T12:42:38.492Z,99615.23
2022-09-03T12:45:16.111Z,99626.30
2022-09-03T12:47:49.401Z,99611.86
2022-09-03T12:50:24.422Z,99633.21
2022-09-03T12:53:00.680Z,99617.16
2022-09-03T12:55:37.196Z,99611.41
2022-09-03T12:58:14.158Z,99617.98
2022-09-03T13:00:51.102Z,99611.27
2022-09-03T13:03:29.425Z,99608.16
2022-09-03T13:06:10.023Z,99608.16
2022-09-03T13:08:49.017Z,99618.95
2022-09-03T13:11:31.960Z,99609.23
2022-09-03T13:14:10.258Z,99605.58
2022-09-03T13:17:30.553Z,99608.09
2022-09-03T13:20:25.365Z,99619.28
2022-09-03T13:23:15.968Z,99609.31
2022-09-03T13:26:18.358Z,99607.72
2022-09-03T13:29:03.361Z,99613.91
2022-09-03T13:31:40.117Z,99610.81
2022-09-03T13:37:52.599Z,99583.28
2022-09-03T13:41:11.422Z,99588.97
2022-09-03T13:44:20.922Z,99612.62
2022-09-03T13:51:28.984Z,99594.84
2022-09-03T13:54:48.219Z,99605.35
2022-09-03T13:57:14.333Z,99599.69
2022-09-03T14:01:04.923Z,99594.91
2022-09-03T14:03:52.352Z,99594.69
2022-09-03T14:06:50.640Z,99595.78
2022-09-03T14:09:50.898Z,99591.34
2022-09-03T14:12:34.323Z,99579.22
2022-09-03T14:15:56.297Z,99585.03
2022-09-03T14:19:04.425Z,99587.19
2022-09-03T14:21:48.446Z,99588.33
2022-09-03T14:28:16.432Z,99576.46
2022-09-03T14:33:59.837Z,99587.92
2022-09-03T14:36:36.352Z,99578.73
2022-09-03T14:39:32.662Z,99573.70
2022-09-03T14:42:21.640Z,99580.21
2022-09-03T14:45:04.334Z,99582.16
2022-09-03T14:47:44.295Z,99581.47
2022-09-03T14:50:29.080Z,99586.83
2022-09-03T14:54:01.884Z,99587.77
2022-09-03T14:56:52.828Z,99586.91
2022-09-03T14:59:40.217Z,99576.23
2022-09-03T15:03:16.381Z,99576.23
2022-09-03T15:06:13.838Z,99578.21
2022-09-03T15:08:57.316Z,99571.45
2022-09-03T15:11:33.768Z,99569.20
2022-09-03T15:14:10.935Z,99565.87
2022-09-03T15:16:51.414Z,99565.15
2022-09-03T15:19:39.916Z,99567.95
2022-09-03T15:22:20.875Z,99561.97
2022-09-03T15:24:58.569Z,99561.14
2022-09-03T15:27:41.903Z,99553.33
2022-09-03T15:30:19.162Z,99553.38
2022-09-03T15:33:05.704Z,99557.70
2022-09-03T15:35:56.831Z,99556.78
2022-09-03T15:38:36.976Z,99556.64
2022-09-03T15:41:14.216Z,99560.16
2022-09-03T15:43:51.105Z,99560.16
2022-09-03T15:46:39.542Z,99556.77
2022-09-03T15:49:20.658Z,99562.06
2022-09-03T15:52:13.880Z,99559.56
2022-09-03T15:55:02.641Z,99548.27
2022-09-03T15:57:51.568Z,99558.05
2022-09-03T16:03:52.199Z,99566.98
2022-09-03T16:06:34.310Z,99564.44
2022-09-03T16:12:22.056Z,99557.47
2022-09-03T16:14:58.928Z,99565.39
2022-09-03T16:17:36.783Z,99570.66
2022-09-03T16:20:29.664Z,99567.17
2022-09-03T16:23:09.642Z,99562.81
2022-09-03T16:25:51.997Z,99565.44
2022-09-03T16:28:31.647Z,99572.41
2022-09-03T16:31:13.191Z,99579.41
2022-09-03T16:33:54.436Z,99582.02
2022-09-03T16:36:39.620Z,99582.03
2022-09-03T16:39:20.323Z,99581.16
2022-09-03T16:42:01.341Z,99581.15
2022-09-03T16:44:41.376Z,99576.78
2022-09-03T16:47:18.933Z,99570.66
2022-09-03T16:50:12.870Z,99582.02
2022-09-03T16:52:50.725Z,99589.04
2022-09-03T16:55:24.620Z,99591.66
2022-09-03T16:58:13.975Z,99594.31
2022-09-03T17:00:58.874Z,99599.55
2022-09-03T17:04:25.819Z,99596.03
2022-09-03T17:09:47.707Z,99590.80
2022-09-03T17:12:25.828Z,99601.28
2022-09-03T17:15:39.132Z,99606.55
2022-09-03T17:21:20.861Z,99598.68
2022-09-03T17:24:11.331Z,99599.53
2022-09-03T17:26:52.241Z,99601.28
2022-09-03T17:29:45.717Z,99598.64
2022-09-03T17:32:26.596Z,99601.27
2022-09-03T17:35:09.294Z,99570.64
2022-09-03T17:37:55.298Z,99602.14
2022-09-03T17:40:36.155Z,99596.02
2022-09-03T17:43:14.670Z,99595.16
2022-09-03T17:45:52.130Z,99594.27
2022-09-03T17:48:45.417Z,99596.89
2022-09-03T17:51:28.964Z,99598.63
2022-09-03T17:56:59.926Z,99594.27
2022-09-03T17:59:38.909Z,99603.86
2022-09-03T18:02:18.803Z,99597.76
2022-09-03T18:04:55.850Z,99601.25
2022-09-03T18:07:32.074Z,99603.89
2022-09-03T18:10:14.220Z,99599.48
2022-09-03T18:13:01.340Z,99597.73
2022-09-03T18:15:29.450Z,99603.83
2022-09-03T18:18:05.350Z,99599.44
2022-09-03T18:21:22.878Z,99591.53
2022-09-03T18:23:59.843Z,99591.53
2022-09-03T18:26:53.011Z,99589.75
2022-09-03T18:29:51.176Z,99588.78
2022-09-03T18:32:40.418Z,99584.38
2022-09-03T18:35:31.497Z,99592.19
2022-09-03T18:38:24.169Z,99593.05
2022-09-03T18:41:17.589Z,99583.36
2022-09-03T18:44:12.692Z,99590.30
2022-09-03T18:48:02.983Z,99592.01
2022-09-03T18:50:03.057Z,99591.09
2022-09-03T18:52:56.393Z,99589.30
2022-09-03T18:55:50.961Z,99582.28
2022-09-03T18:58:45.114Z,99577.86
2022-09-03T19:01:39.396Z,99573.47
2022-09-03T19:04:33.682Z,99578.70
2022-09-03T19:07:28.500Z,99575.23
2022-09-03T19:10:21.809Z,99575.23
2022-09-03T19:13:25.136Z,99577.00
2022-09-03T19:16:19.217Z,99574.44
2022-09-03T19:19:25.515Z,99577.11
2022-09-03T19:22:18.368Z,99577.11
2022-09-03T19:25:13.564Z,99564.02
2022-09-03T19:28:07.520Z,99567.54
2022-09-03T19:31:03.541Z,99576.25
2022-09-03T19:33:57.329Z,99575.39
2022-09-03T19:36:50.813Z,99583.25
2022-09-03T19:39:48.242Z,99584.11
2022-09-03T19:42:43.191Z,99586.73
2022-09-03T19:45:37.300Z,99593.56
2022-09-03T19:48:32.502Z,99581.13
2022-09-03T19:51:26.329Z,99570.52
2022-09-03T19:54:19.003Z,99576.54
2022-09-03T19:57:10.643Z,99574.83
2022-09-03T20:00:03.534Z,99567.05
2022-09-03T20:02:57.775Z,99568.77
2022-09-03T20:05:48.542Z,99563.60
2022-09-03T20:08:41.154Z,99564.52
2022-09-03T20:11:19.085Z,99563.66
2022-09-03T20:14:08.573Z,99568.89
2022-09-03T20:16:46.157Z,99563.66
2022-09-03T20:19:23.720Z,99570.45
2022-09-03T20:21:59.705Z,99574.75
2022-09-03T20:27:25.905Z,99566.93
2022-09-03T20:30:03.733Z,99578.91
2022-09-03T20:32:46.681Z,99577.30
2022-09-03T20:35:23.200Z,99576.45
2022-09-03T20:38:00.562Z,99569.45
2022-09-03T20:40:39.524Z,99568.53
2022-09-03T20:43:38.914Z,99570.29
2022-09-03T20:46:17.406Z,99564.16
2022-09-03T20:48:56.033Z,99574.62
2022-09-03T20:51:33.842Z,99571.98
2022-09-03T20:54:17.186Z,99574.52
2022-09-03T20:57:14.113Z,99574.50
2022-09-03T21:00:00.706Z,99580.50
2022-09-03T21:02:42.580Z,99571.73
2022-09-03T21:05:20.081Z,99580.38
2022-09-03T21:08:00.048Z,99575.08
2022-09-03T21:10:36.206Z,99586.38
2022-09-03T21:13:14.384Z,99586.33
2022-09-03T21:15:56.421Z,99588.05
2022-09-03T21:18:32.407Z,99588.04
2022-09-03T21:23:54.156Z,99590.73
2022-09-03T21:26:30.109Z,99589.66
2022-09-03T21:29:06.561Z,99586.12
2022-09-03T21:31:42.668Z,99593.02
2022-09-03T21:34:19.372Z,99595.58
2022-09-03T21:36:53.600Z,99594.64
2022-09-03T21:39:31.049Z,99594.58
2022-09-03T21:42:07.057Z,99592.80
2022-09-03T21:44:55.355Z,99601.45
2022-09-03T21:47:31.395Z,99597.00
2022-09-03T21:50:13.082Z,99603.03
2022-09-03T21:52:47.799Z,99589.90
2022-09-03T21:55:25.418Z,99603.77
2022-09-03T21:58:09.182Z,99601.97
2022-09-03T22:00:42.235Z,99594.95
2022-09-03T22:03:15.603Z,99599.22
2022-09-03T22:05:51.551Z,99600.88
2022-09-03T22:11:12.451Z,99607.03
2022-09-03T22:13:48.713Z,99605.91
2022-09-03T22:16:24.685Z,99610.22
2022-09-03T22:18:58.696Z,99605.85
2022-09-03T22:21:36.119Z,99604.90
2022-09-03T22:24:17.172Z,99603.09
2022-09-03T22:26:54.131Z,99605.63
2022-09-03T22:29:35.498Z,99604.67
2022-09-03T22:35:02.858Z,99604.75
2022-09-03T22:37:48.566Z,99604.48
2022-09-03T22:40:25.229Z,99602.68
2022-09-03T22:43:06.941Z,99609.58
2022-09-03T22:45:49.675Z,99600.78
2022-09-03T22:48:27.600Z,99599.00
2022-09-03T22:51:00.554Z,99604.17
2022-09-03T22:53:42.891Z,99600.64
2022-09-03T22:56:20.499Z,99599.63
2022-09-03T22:58:57.815Z,99604.77
2022-09-03T23:01:34.973Z,99608.25
2022-09-03T23:04:13.120Z,99599.41
2022-09-03T23:06:52.934Z,99606.46
2022-09-03T23:09:28.974Z,99601.17
2022-09-03T23:12:06.343Z,99601.12
2022-09-03T23:14:44.160Z,99608.00
2022-09-03T23:17:22.434Z,99608.84
2022-09-03T23:20:00.821Z,99609.66
2022-09-03T23:22:38.829Z,99609.64
2022-09-03T23:25:15.588Z,99612.22
2022-09-03T23:27:53.326Z,99612.19
2022-09-03T23:30:26.612Z,99609.48
2022-09-03T23:33:01.365Z,99607.70
2022-09-03T23:35:37.295Z,99609.38
2022-09-03T23:38:15.960Z,99599.80
2022-09-03T23:40:51.621Z,99604.92
2022-09-03T23:43:51.021Z,99613.61
2022-09-03T23:46:28.055Z,99610.95
2022-09-03T23:49:09.305Z,99608.30
2022-09-03T23:51:49.029Z,99611.72
2022-09-03T23:54:27.554Z,99606.45
2022-09-03T23:57:25.668Z,99610.72
